sensor_id;sensor_type;location;lat;lon;timestamp;P1;durP1;ratioP1;P2;durP2;ratioP2
32323;SDS011;25666;44.350;9.222;2024-03-02T00:01:07;14.07;;;7.72;;
32323;SDS011;25666;44.350;9.222;2024-03-02T00:03:36;14.10;;;7.20;;
32323;SDS011;25666;44.350;9.222;2024-03-02T00:06:02;19.05;;;10.02;;
32323;SDS011;25666;44.350;9.222;2024-03-02T00:08:28;17.90;;;10.75;;
32323;SDS011;25666;44.350;9.222;2024-03-02T00:10:58;23.73;;;9.55;;
32323;SDS011;25666;44.350;9.222;2024-03-02T00:13:24;17.27;;;9.40;;
32323;SDS011;25666;44.350;9.222;2024-03-02T00:15:53;19.27;;;10.57;;
32323;SDS011;25666;44.350;9.222;2024-03-02T00:18:27;13.50;;;8.38;;
32323;SDS011;25666;44.350;9.222;2024-03-02T00:20:56;14.27;;;8.40;;
32323;SDS011;25666;44.350;9.222;2024-03-02T00:23:23;13.95;;;6.93;;
32323;SDS011;25666;44.350;9.222;2024-03-02T00:25:50;10.15;;;6.07;;
32323;SDS011;25666;44.350;9.222;2024-03-02T00:28:24;11.00;;;5.93;;
32323;SDS011;25666;44.350;9.222;2024-03-02T00:33:20;5.93;;;4.68;;
32323;SDS011;25666;44.350;9.222;2024-03-02T00:35:47;8.52;;;3.50;;
32323;SDS011;25666;44.350;9.222;2024-03-02T00:38:14;5.80;;;3.65;;
32323;SDS011;25666;44.350;9.222;2024-03-02T00:40:41;7.50;;;3.33;;
32323;SDS011;25666;44.350;9.222;2024-03-02T00:43:11;5.20;;;3.28;;
32323;SDS011;25666;44.350;9.222;2024-03-02T00:45:49;4.38;;;2.75;;
32323;SDS011;25666;44.350;9.222;2024-03-02T00:48:15;6.00;;;3.38;;
32323;SDS011;25666;44.350;9.222;2024-03-02T00:50:41;8.20;;;2.67;;
32323;SDS011;25666;44.350;9.222;2024-03-02T00:53:09;5.82;;;3.10;;
32323;SDS011;25666;44.350;9.222;2024-03-02T00:55:37;4.63;;;2.78;;
32323;SDS011;25666;44.350;9.222;2024-03-02T00:58:03;4.93;;;3.10;;
32323;SDS011;25666;44.350;9.222;2024-03-02T01:00:29;5.65;;;3.05;;
32323;SDS011;25666;44.350;9.222;2024-03-02T01:02:54;6.63;;;2.95;;
32323;SDS011;25666;44.350;9.222;2024-03-02T01:05:20;3.20;;;2.60;;
32323;SDS011;25666;44.350;9.222;2024-03-02T01:07:45;3.65;;;2.53;;
32323;SDS011;25666;44.350;9.222;2024-03-02T01:10:11;5.65;;;3.10;;
32323;SDS011;25666;44.350;9.222;2024-03-02T01:12:37;4.55;;;3.22;;
32323;SDS011;25666;44.350;9.222;2024-03-02T01:15:02;5.35;;;2.60;;
32323;SDS011;25666;44.350;9.222;2024-03-02T01:17:31;7.65;;;3.30;;
32323;SDS011;25666;44.350;9.222;2024-03-02T01:19:56;9.88;;;3.20;;
32323;SDS011;25666;44.350;9.222;2024-03-02T01:22:22;3.30;;;2.25;;
32323;SDS011;25666;44.350;9.222;2024-03-02T01:24:50;3.80;;;2.75;;
32323;SDS011;25666;44.350;9.222;2024-03-02T01:27:16;4.75;;;3.45;;
32323;SDS011;25666;44.350;9.222;2024-03-02T01:29:42;4.07;;;3.17;;
32323;SDS011;25666;44.350;9.222;2024-03-02T01:32:07;5.25;;;2.90;;
32323;SDS011;25666;44.350;9.222;2024-03-02T01:34:33;3.85;;;3.05;;
32323;SDS011;25666;44.350;9.222;2024-03-02T01:36:58;5.60;;;3.67;;
32323;SDS011;25666;44.350;9.222;2024-03-02T01:39:24;6.95;;;3.90;;
32323;SDS011;25666;44.350;9.222;2024-03-02T01:41:49;7.07;;;3.53;;
32323;SDS011;25666;44.350;9.222;2024-03-02T01:44:14;8.40;;;3.65;;
32323;SDS011;25666;44.350;9.222;2024-03-02T01:46:40;7.32;;;3.60;;
32323;SDS011;25666;44.350;9.222;2024-03-02T01:49:06;5.32;;;4.00;;
32323;SDS011;25666;44.350;9.222;2024-03-02T01:51:31;4.13;;;3.50;;
32323;SDS011;25666;44.350;9.222;2024-03-02T01:53:57;4.57;;;3.03;;
32323;SDS011;25666;44.350;9.222;2024-03-02T01:56:22;4.82;;;3.05;;
32323;SDS011;25666;44.350;9.222;2024-03-02T01:58:49;6.97;;;2.75;;
32323;SDS011;25666;44.350;9.222;2024-03-02T02:01:14;7.65;;;2.90;;
32323;SDS011;25666;44.350;9.222;2024-03-02T02:03:41;5.82;;;2.88;;
32323;SDS011;25666;44.350;9.222;2024-03-02T02:06:07;3.28;;;2.75;;
32323;SDS011;25666;44.350;9.222;2024-03-02T02:08:33;4.65;;;3.00;;
32323;SDS011;25666;44.350;9.222;2024-03-02T02:10:58;10.48;;;2.80;;
32323;SDS011;25666;44.350;9.222;2024-03-02T02:13:24;2.95;;;2.40;;
32323;SDS011;25666;44.350;9.222;2024-03-02T02:15:49;3.13;;;2.30;;
32323;SDS011;25666;44.350;9.222;2024-03-02T02:18:15;4.25;;;2.35;;
32323;SDS011;25666;44.350;9.222;2024-03-02T02:20:41;6.43;;;2.50;;
32323;SDS011;25666;44.350;9.222;2024-03-02T02:23:06;6.88;;;1.85;;
32323;SDS011;25666;44.350;9.222;2024-03-02T02:25:35;3.20;;;2.05;;
32323;SDS011;25666;44.350;9.222;2024-03-02T02:28:00;4.95;;;1.80;;
32323;SDS011;25666;44.350;9.222;2024-03-02T02:30:27;2.90;;;2.05;;
32323;SDS011;25666;44.350;9.222;2024-03-02T02:32:54;4.15;;;2.30;;
32323;SDS011;25666;44.350;9.222;2024-03-02T02:35:20;3.08;;;2.20;;
32323;SDS011;25666;44.350;9.222;2024-03-02T02:37:46;5.00;;;1.92;;
32323;SDS011;25666;44.350;9.222;2024-03-02T02:40:13;5.18;;;2.97;;
32323;SDS011;25666;44.350;9.222;2024-03-02T02:42:39;8.63;;;2.53;;
32323;SDS011;25666;44.350;9.222;2024-03-02T02:45:05;6.45;;;2.72;;
32323;SDS011;25666;44.350;9.222;2024-03-02T02:47:31;5.07;;;3.53;;
32323;SDS011;25666;44.350;9.222;2024-03-02T02:50:00;14.73;;;3.78;;
32323;SDS011;25666;44.350;9.222;2024-03-02T02:52:35;6.35;;;3.75;;
32323;SDS011;25666;44.350;9.222;2024-03-02T02:55:04;7.15;;;3.78;;
32323;SDS011;25666;44.350;9.222;2024-03-02T02:57:30;9.77;;;2.88;;
32323;SDS011;25666;44.350;9.222;2024-03-02T03:00:00;7.00;;;2.70;;
32323;SDS011;25666;44.350;9.222;2024-03-02T03:02:35;5.95;;;3.20;;
32323;SDS011;25666;44.350;9.222;2024-03-02T03:05:04;5.65;;;2.83;;
32323;SDS011;25666;44.350;9.222;2024-03-02T03:07:33;4.20;;;3.08;;
32323;SDS011;25666;44.350;9.222;2024-03-02T03:10:00;3.83;;;2.67;;
32323;SDS011;25666;44.350;9.222;2024-03-02T03:12:26;4.78;;;2.78;;
32323;SDS011;25666;44.350;9.222;2024-03-02T03:14:52;5.88;;;2.60;;
32323;SDS011;25666;44.350;9.222;2024-03-02T03:17:21;5.80;;;3.17;;
32323;SDS011;25666;44.350;9.222;2024-03-02T03:19:47;5.72;;;2.60;;
32323;SDS011;25666;44.350;9.222;2024-03-02T03:22:12;3.00;;;2.50;;
32323;SDS011;25666;44.350;9.222;2024-03-02T03:24:38;4.00;;;2.47;;
32323;SDS011;25666;44.350;9.222;2024-03-02T03:27:04;7.22;;;1.98;;
32323;SDS011;25666;44.350;9.222;2024-03-02T03:29:29;3.20;;;2.17;;
32323;SDS011;25666;44.350;9.222;2024-03-02T03:31:55;2.60;;;2.30;;
32323;SDS011;25666;44.350;9.222;2024-03-02T03:34:20;2.42;;;1.67;;
32323;SDS011;25666;44.350;9.222;2024-03-02T03:36:46;4.07;;;1.85;;
32323;SDS011;25666;44.350;9.222;2024-03-02T03:39:11;6.57;;;1.92;;
32323;SDS011;25666;44.350;9.222;2024-03-02T03:41:37;4.82;;;3.00;;
32323;SDS011;25666;44.350;9.222;2024-03-02T03:44:02;2.85;;;1.80;;
32323;SDS011;25666;44.350;9.222;2024-03-02T03:46:28;1.58;;;1.45;;
32323;SDS011;25666;44.350;9.222;2024-03-02T03:48:54;1.30;;;1.20;;
32323;SDS011;25666;44.350;9.222;2024-03-02T03:51:21;1.60;;;1.30;;
32323;SDS011;25666;44.350;9.222;2024-03-02T03:53:48;1.70;;;1.60;;
32323;SDS011;25666;44.350;9.222;2024-03-02T03:56:13;1.55;;;1.45;;
32323;SDS011;25666;44.350;9.222;2024-03-02T03:58:39;2.92;;;1.70;;
32323;SDS011;25666;44.350;9.222;2024-03-02T04:01:05;2.13;;;1.85;;
32323;SDS011;25666;44.350;9.222;2024-03-02T04:03:30;1.77;;;1.60;;
32323;SDS011;25666;44.350;9.222;2024-03-02T04:05:56;2.13;;;1.35;;
32323;SDS011;25666;44.350;9.222;2024-03-02T04:08:21;1.52;;;1.42;;
32323;SDS011;25666;44.350;9.222;2024-03-02T04:10:47;2.78;;;2.00;;
32323;SDS011;25666;44.350;9.222;2024-03-02T04:13:12;2.03;;;1.40;;
32323;SDS011;25666;44.350;9.222;2024-03-02T04:15:38;1.60;;;1.50;;
32323;SDS011;25666;44.350;9.222;2024-03-02T04:18:03;2.03;;;1.40;;
32323;SDS011;25666;44.350;9.222;2024-03-02T04:20:29;4.85;;;1.60;;
32323;SDS011;25666;44.350;9.222;2024-03-02T04:22:55;1.65;;;1.55;;
32323;SDS011;25666;44.350;9.222;2024-03-02T04:25:20;3.97;;;1.52;;
32323;SDS011;25666;44.350;9.222;2024-03-02T04:27:46;1.65;;;1.55;;
32323;SDS011;25666;44.350;9.222;2024-03-02T04:30:12;4.22;;;1.88;;
32323;SDS011;25666;44.350;9.222;2024-03-02T04:32:37;3.08;;;2.00;;
32323;SDS011;25666;44.350;9.222;2024-03-02T04:35:04;2.80;;;2.00;;
32323;SDS011;25666;44.350;9.222;2024-03-02T04:37:31;4.13;;;2.10;;
32323;SDS011;25666;44.350;9.222;2024-03-02T04:39:59;6.38;;;2.30;;
32323;SDS011;25666;44.350;9.222;2024-03-02T04:42:24;2.47;;;1.90;;
32323;SDS011;25666;44.350;9.222;2024-03-02T04:44:50;2.75;;;1.90;;
32323;SDS011;25666;44.350;9.222;2024-03-02T04:47:15;2.60;;;1.75;;
32323;SDS011;25666;44.350;9.222;2024-03-02T04:49:41;3.38;;;1.70;;
32323;SDS011;25666;44.350;9.222;2024-03-02T04:52:07;2.20;;;2.00;;
32323;SDS011;25666;44.350;9.222;2024-03-02T04:54:32;5.45;;;1.77;;
32323;SDS011;25666;44.350;9.222;2024-03-02T04:57:00;4.07;;;1.90;;
32323;SDS011;25666;44.350;9.222;2024-03-02T04:59:25;3.92;;;2.00;;
32323;SDS011;25666;44.350;9.222;2024-03-02T05:01:51;2.97;;;1.55;;
32323;SDS011;25666;44.350;9.222;2024-03-02T05:04:16;3.92;;;1.77;;
32323;SDS011;25666;44.350;9.222;2024-03-02T05:06:42;2.60;;;1.70;;
32323;SDS011;25666;44.350;9.222;2024-03-02T05:09:08;3.22;;;1.75;;
32323;SDS011;25666;44.350;9.222;2024-03-02T05:11:34;2.58;;;2.10;;
32323;SDS011;25666;44.350;9.222;2024-03-02T05:14:03;1.67;;;1.58;;
32323;SDS011;25666;44.350;9.222;2024-03-02T05:16:29;1.70;;;1.60;;
32323;SDS011;25666;44.350;9.222;2024-03-02T05:18:54;2.05;;;1.60;;
32323;SDS011;25666;44.350;9.222;2024-03-02T05:21:20;4.88;;;1.70;;
32323;SDS011;25666;44.350;9.222;2024-03-02T05:23:46;8.27;;;1.67;;
32323;SDS011;25666;44.350;9.222;2024-03-02T05:26:11;1.75;;;1.60;;
32323;SDS011;25666;44.350;9.222;2024-03-02T05:28:38;2.78;;;1.50;;
32323;SDS011;25666;44.350;9.222;2024-03-02T05:31:04;3.40;;;1.40;;
32323;SDS011;25666;44.350;9.222;2024-03-02T05:33:30;1.55;;;1.30;;
32323;SDS011;25666;44.350;9.222;2024-03-02T05:35:58;1.40;;;1.30;;
32323;SDS011;25666;44.350;9.222;2024-03-02T05:38:24;3.17;;;1.20;;
32323;SDS011;25666;44.350;9.222;2024-03-02T05:40:49;6.10;;;1.20;;
32323;SDS011;25666;44.350;9.222;2024-03-02T05:43:15;2.65;;;2.13;;
32323;SDS011;25666;44.350;9.222;2024-03-02T05:45:40;1.50;;;1.40;;
32323;SDS011;25666;44.350;9.222;2024-03-02T05:48:07;3.42;;;2.25;;
32323;SDS011;25666;44.350;9.222;2024-03-02T05:50:32;3.67;;;1.63;;
32323;SDS011;25666;44.350;9.222;2024-03-02T05:52:58;1.52;;;1.40;;
32323;SDS011;25666;44.350;9.222;2024-03-02T05:55:24;1.90;;;1.80;;
32323;SDS011;25666;44.350;9.222;2024-03-02T05:57:49;1.80;;;1.38;;
32323;SDS011;25666;44.350;9.222;2024-03-02T06:00:35;2.85;;;1.13;;
32323;SDS011;25666;44.350;9.222;2024-03-02T06:03:01;3.38;;;1.20;;
32323;SDS011;25666;44.350;9.222;2024-03-02T06:05:27;1.85;;;1.20;;
32323;SDS011;25666;44.350;9.222;2024-03-02T06:07:52;2.15;;;1.38;;
32323;SDS011;25666;44.350;9.222;2024-03-02T06:10:18;2.58;;;1.33;;
32323;SDS011;25666;44.350;9.222;2024-03-02T06:12:44;1.30;;;1.20;;
32323;SDS011;25666;44.350;9.222;2024-03-02T06:15:09;2.13;;;1.70;;
32323;SDS011;25666;44.350;9.222;2024-03-02T06:17:36;4.40;;;1.20;;
32323;SDS011;25666;44.350;9.222;2024-03-02T06:20:02;2.30;;;1.75;;
32323;SDS011;25666;44.350;9.222;2024-03-02T06:22:27;2.97;;;1.15;;
32323;SDS011;25666;44.350;9.222;2024-03-02T06:24:53;3.10;;;1.30;;
32323;SDS011;25666;44.350;9.222;2024-03-02T06:27:18;2.97;;;1.33;;
32323;SDS011;25666;44.350;9.222;2024-03-02T06:29:44;1.98;;;1.50;;
32323;SDS011;25666;44.350;9.222;2024-03-02T06:32:10;1.77;;;1.35;;
32323;SDS011;25666;44.350;9.222;2024-03-02T06:34:36;1.10;;;1.00;;
32323;SDS011;25666;44.350;9.222;2024-03-02T06:37:01;3.00;;;1.20;;
32323;SDS011;25666;44.350;9.222;2024-03-02T06:39:27;9.88;;;1.60;;
32323;SDS011;25666;44.350;9.222;2024-03-02T06:41:53;3.13;;;1.73;;
32323;SDS011;25666;44.350;9.222;2024-03-02T06:44:18;4.03;;;1.63;;
32323;SDS011;25666;44.350;9.222;2024-03-02T06:46:44;4.25;;;1.45;;
32323;SDS011;25666;44.350;9.222;2024-03-02T06:49:09;6.85;;;1.50;;
32323;SDS011;25666;44.350;9.222;2024-03-02T06:51:35;3.08;;;1.20;;
32323;SDS011;25666;44.350;9.222;2024-03-02T06:54:01;5.30;;;1.40;;
32323;SDS011;25666;44.350;9.222;2024-03-02T06:56:27;4.10;;;1.50;;
32323;SDS011;25666;44.350;9.222;2024-03-02T06:58:52;2.63;;;1.60;;
32323;SDS011;25666;44.350;9.222;2024-03-02T07:01:18;5.65;;;2.15;;
32323;SDS011;25666;44.350;9.222;2024-03-02T07:03:45;1.95;;;1.60;;
32323;SDS011;25666;44.350;9.222;2024-03-02T07:06:11;4.07;;;1.42;;
32323;SDS011;25666;44.350;9.222;2024-03-02T07:08:36;1.67;;;1.23;;
32323;SDS011;25666;44.350;9.222;2024-03-02T07:11:02;3.42;;;1.38;;
32323;SDS011;25666;44.350;9.222;2024-03-02T07:13:27;1.80;;;1.58;;
32323;SDS011;25666;44.350;9.222;2024-03-02T07:15:53;2.58;;;1.75;;
32323;SDS011;25666;44.350;9.222;2024-03-02T07:18:28;1.70;;;1.33;;
32323;SDS011;25666;44.350;9.222;2024-03-02T07:20:53;2.38;;;1.88;;
32323;SDS011;25666;44.350;9.222;2024-03-02T07:23:20;5.85;;;1.80;;
32323;SDS011;25666;44.350;9.222;2024-03-02T07:25:49;2.28;;;1.50;;
32323;SDS011;25666;44.350;9.222;2024-03-02T07:28:15;1.88;;;1.40;;
32323;SDS011;25666;44.350;9.222;2024-03-02T07:30:41;3.35;;;1.73;;
32323;SDS011;25666;44.350;9.222;2024-03-02T07:33:06;3.17;;;1.95;;
32323;SDS011;25666;44.350;9.222;2024-03-02T07:35:32;2.80;;;1.95;;
32323;SDS011;25666;44.350;9.222;2024-03-02T07:37:57;1.80;;;1.60;;
32323;SDS011;25666;44.350;9.222;2024-03-02T07:40:23;1.88;;;1.50;;
32323;SDS011;25666;44.350;9.222;2024-03-02T07:42:49;7.55;;;1.52;;
32323;SDS011;25666;44.350;9.222;2024-03-02T07:45:15;1.85;;;1.48;;
32323;SDS011;25666;44.350;9.222;2024-03-02T07:47:40;1.90;;;1.40;;
32323;SDS011;25666;44.350;9.222;2024-03-02T07:50:06;2.28;;;2.03;;
32323;SDS011;25666;44.350;9.222;2024-03-02T07:52:32;2.00;;;1.30;;
32323;SDS011;25666;44.350;9.222;2024-03-02T07:54:58;3.03;;;1.45;;
32323;SDS011;25666;44.350;9.222;2024-03-02T07:57:24;2.63;;;1.50;;
32323;SDS011;25666;44.350;9.222;2024-03-02T07:59:50;2.28;;;1.30;;
32323;SDS011;25666;44.350;9.222;2024-03-02T08:02:16;1.85;;;1.60;;
32323;SDS011;25666;44.350;9.222;2024-03-02T08:04:41;5.95;;;2.30;;
32323;SDS011;25666;44.350;9.222;2024-03-02T08:07:07;5.53;;;3.10;;
32323;SDS011;25666;44.350;9.222;2024-03-02T08:09:34;5.03;;;2.95;;
32323;SDS011;25666;44.350;9.222;2024-03-02T08:12:00;4.47;;;2.80;;
32323;SDS011;25666;44.350;9.222;2024-03-02T08:14:25;4.95;;;3.15;;
32323;SDS011;25666;44.350;9.222;2024-03-02T08:16:51;6.65;;;2.88;;
32323;SDS011;25666;44.350;9.222;2024-03-02T08:19:17;5.70;;;3.10;;
32323;SDS011;25666;44.350;9.222;2024-03-02T08:21:43;6.03;;;2.50;;
32323;SDS011;25666;44.350;9.222;2024-03-02T08:24:08;4.80;;;2.50;;
32323;SDS011;25666;44.350;9.222;2024-03-02T08:26:34;4.05;;;2.30;;
32323;SDS011;25666;44.350;9.222;2024-03-02T08:29:00;5.72;;;3.50;;
32323;SDS011;25666;44.350;9.222;2024-03-02T08:31:29;4.65;;;2.80;;
32323;SDS011;25666;44.350;9.222;2024-03-02T08:33:55;6.47;;;2.83;;
32323;SDS011;25666;44.350;9.222;2024-03-02T08:36:22;4.45;;;2.63;;
32323;SDS011;25666;44.350;9.222;2024-03-02T08:38:49;4.70;;;2.45;;
32323;SDS011;25666;44.350;9.222;2024-03-02T08:41:15;4.15;;;2.30;;
32323;SDS011;25666;44.350;9.222;2024-03-02T08:43:41;4.55;;;2.50;;
32323;SDS011;25666;44.350;9.222;2024-03-02T08:46:08;2.80;;;1.95;;
32323;SDS011;25666;44.350;9.222;2024-03-02T08:48:34;5.93;;;2.15;;
32323;SDS011;25666;44.350;9.222;2024-03-02T08:50:59;4.47;;;1.80;;
32323;SDS011;25666;44.350;9.222;2024-03-02T08:53:25;4.80;;;2.50;;
32323;SDS011;25666;44.350;9.222;2024-03-02T08:55:51;3.25;;;2.22;;
32323;SDS011;25666;44.350;9.222;2024-03-02T08:58:17;6.70;;;3.20;;
32323;SDS011;25666;44.350;9.222;2024-03-02T09:00:43;5.32;;;2.33;;
32323;SDS011;25666;44.350;9.222;2024-03-02T09:03:08;5.28;;;2.75;;
32323;SDS011;25666;44.350;9.222;2024-03-02T09:05:35;4.55;;;2.63;;
32323;SDS011;25666;44.350;9.222;2024-03-02T09:08:01;5.70;;;3.92;;
32323;SDS011;25666;44.350;9.222;2024-03-02T09:10:28;4.25;;;2.88;;
32323;SDS011;25666;44.350;9.222;2024-03-02T09:12:54;3.38;;;2.00;;
32323;SDS011;25666;44.350;9.222;2024-03-02T09:15:19;4.53;;;2.88;;
32323;SDS011;25666;44.350;9.222;2024-03-02T09:17:45;3.53;;;2.28;;
32323;SDS011;25666;44.350;9.222;2024-03-02T09:20:11;5.28;;;2.20;;
32323;SDS011;25666;44.350;9.222;2024-03-02T09:22:36;3.92;;;2.50;;
32323;SDS011;25666;44.350;9.222;2024-03-02T09:25:02;4.13;;;1.85;;
32323;SDS011;25666;44.350;9.222;2024-03-02T09:27:27;6.05;;;2.15;;
32323;SDS011;25666;44.350;9.222;2024-03-02T09:29:53;2.30;;;1.90;;
32323;SDS011;25666;44.350;9.222;2024-03-02T09:32:18;4.00;;;1.77;;
32323;SDS011;25666;44.350;9.222;2024-03-02T09:34:44;4.40;;;1.60;;
32323;SDS011;25666;44.350;9.222;2024-03-02T09:37:09;4.57;;;2.17;;
32323;SDS011;25666;44.350;9.222;2024-03-02T09:39:36;5.50;;;1.83;;
32323;SDS011;25666;44.350;9.222;2024-03-02T09:42:01;6.10;;;1.85;;
32323;SDS011;25666;44.350;9.222;2024-03-02T09:44:29;4.63;;;2.10;;
32323;SDS011;25666;44.350;9.222;2024-03-02T09:46:55;4.15;;;1.67;;
32323;SDS011;25666;44.350;9.222;2024-03-02T09:49:22;3.72;;;1.83;;
32323;SDS011;25666;44.350;9.222;2024-03-02T09:51:48;6.65;;;1.98;;
32323;SDS011;25666;44.350;9.222;2024-03-02T09:54:15;2.85;;;1.75;;
32323;SDS011;25666;44.350;9.222;2024-03-02T09:56:41;9.05;;;1.98;;
32323;SDS011;25666;44.350;9.222;2024-03-02T09:59:07;14.60;;;3.15;;
32323;SDS011;25666;44.350;9.222;2024-03-02T10:01:32;4.28;;;2.10;;
32323;SDS011;25666;44.350;9.222;2024-03-02T10:04:01;2.13;;;1.60;;
32323;SDS011;25666;44.350;9.222;2024-03-02T10:06:30;4.75;;;1.75;;
32323;SDS011;25666;44.350;9.222;2024-03-02T10:08:55;3.67;;;2.65;;
32323;SDS011;25666;44.350;9.222;2024-03-02T10:11:28;6.70;;;1.67;;
32323;SDS011;25666;44.350;9.222;2024-03-02T10:16:38;22.15;;;2.20;;
32323;SDS011;25666;44.350;9.222;2024-03-02T10:19:18;2.90;;;1.80;;
32323;SDS011;25666;44.350;9.222;2024-03-02T10:21:47;3.95;;;2.15;;
32323;SDS011;25666;44.350;9.222;2024-03-02T10:24:14;4.30;;;1.98;;
32323;SDS011;25666;44.350;9.222;2024-03-02T10:26:40;5.10;;;1.70;;
32323;SDS011;25666;44.350;9.222;2024-03-02T10:29:10;5.13;;;1.70;;
32323;SDS011;25666;44.350;9.222;2024-03-02T10:31:40;5.03;;;1.67;;
32323;SDS011;25666;44.350;9.222;2024-03-02T10:34:07;2.63;;;1.88;;
32323;SDS011;25666;44.350;9.222;2024-03-02T10:36:33;5.53;;;2.80;;
32323;SDS011;25666;44.350;9.222;2024-03-02T10:39:03;5.75;;;1.60;;
32323;SDS011;25666;44.350;9.222;2024-03-02T10:41:36;8.25;;;1.77;;
32323;SDS011;25666;44.350;9.222;2024-03-02T10:44:03;4.75;;;1.55;;
32323;SDS011;25666;44.350;9.222;2024-03-02T10:46:33;2.95;;;1.70;;
32323;SDS011;25666;44.350;9.222;2024-03-02T10:49:01;2.60;;;1.85;;
32323;SDS011;25666;44.350;9.222;2024-03-02T10:51:29;2.10;;;1.90;;
32323;SDS011;25666;44.350;9.222;2024-03-02T10:54:00;6.22;;;2.17;;
32323;SDS011;25666;44.350;9.222;2024-03-02T10:57:00;3.90;;;1.90;;
32323;SDS011;25666;44.350;9.222;2024-03-02T11:01:58;7.78;;;2.38;;
32323;SDS011;25666;44.350;9.222;2024-03-02T11:04:25;3.92;;;2.22;;
32323;SDS011;25666;44.350;9.222;2024-03-02T11:07:04;3.72;;;2.10;;
32323;SDS011;25666;44.350;9.222;2024-03-02T11:09:33;4.70;;;1.60;;
32323;SDS011;25666;44.350;9.222;2024-03-02T11:12:09;4.82;;;1.85;;
32323;SDS011;25666;44.350;9.222;2024-03-02T11:15:01;3.70;;;2.10;;
32323;SDS011;25666;44.350;9.222;2024-03-02T11:17:34;4.85;;;1.95;;
32323;SDS011;25666;44.350;9.222;2024-03-02T11:20:01;12.98;;;2.45;;
32323;SDS011;25666;44.350;9.222;2024-03-02T11:22:29;4.30;;;2.25;;
32323;SDS011;25666;44.350;9.222;2024-03-02T11:24:55;5.57;;;2.03;;
32323;SDS011;25666;44.350;9.222;2024-03-02T11:33:01;3.90;;;2.47;;
32323;SDS011;25666;44.350;9.222;2024-03-02T11:35:32;6.43;;;1.83;;
32323;SDS011;25666;44.350;9.222;2024-03-02T11:37:58;10.00;;;2.13;;
32323;SDS011;25666;44.350;9.222;2024-03-02T11:40:24;7.35;;;2.30;;
32323;SDS011;25666;44.350;9.222;2024-03-02T11:42:50;5.93;;;2.50;;
32323;SDS011;25666;44.350;9.222;2024-03-02T11:45:16;7.97;;;1.92;;
32323;SDS011;25666;44.350;9.222;2024-03-02T11:47:46;8.85;;;2.45;;
32323;SDS011;25666;44.350;9.222;2024-03-02T11:50:15;4.57;;;2.03;;
32323;SDS011;25666;44.350;9.222;2024-03-02T11:52:41;5.03;;;1.80;;
32323;SDS011;25666;44.350;9.222;2024-03-02T11:55:07;7.53;;;2.60;;
32323;SDS011;25666;44.350;9.222;2024-03-02T11:57:34;5.57;;;2.25;;
32323;SDS011;25666;44.350;9.222;2024-03-02T12:00:00;8.32;;;1.80;;
32323;SDS011;25666;44.350;9.222;2024-03-02T12:02:30;6.07;;;1.92;;
32323;SDS011;25666;44.350;9.222;2024-03-02T12:04:56;6.78;;;1.88;;
32323;SDS011;25666;44.350;9.222;2024-03-02T12:07:22;9.82;;;2.50;;
32323;SDS011;25666;44.350;9.222;2024-03-02T12:10:01;6.88;;;2.15;;
32323;SDS011;25666;44.350;9.222;2024-03-02T12:12:28;8.88;;;2.08;;
32323;SDS011;25666;44.350;9.222;2024-03-02T12:14:53;2.75;;;1.80;;
32323;SDS011;25666;44.350;9.222;2024-03-02T12:17:21;8.55;;;2.25;;
32323;SDS011;25666;44.350;9.222;2024-03-02T12:19:47;7.68;;;2.05;;
32323;SDS011;25666;44.350;9.222;2024-03-02T12:22:13;6.13;;;2.80;;
32323;SDS011;25666;44.350;9.222;2024-03-02T12:24:38;5.70;;;2.40;;
32323;SDS011;25666;44.350;9.222;2024-03-02T12:27:04;9.65;;;2.80;;
32323;SDS011;25666;44.350;9.222;2024-03-02T12:29:32;4.65;;;2.50;;
32323;SDS011;25666;44.350;9.222;2024-03-02T12:31:57;2.13;;;1.63;;
32323;SDS011;25666;44.350;9.222;2024-03-02T12:34:24;5.80;;;2.30;;
32323;SDS011;25666;44.350;9.222;2024-03-02T12:36:51;5.03;;;2.78;;
32323;SDS011;25666;44.350;9.222;2024-03-02T12:39:21;7.13;;;2.50;;
32323;SDS011;25666;44.350;9.222;2024-03-02T12:41:48;7.38;;;2.83;;
32323;SDS011;25666;44.350;9.222;2024-03-02T12:44:16;4.65;;;2.30;;
32323;SDS011;25666;44.350;9.222;2024-03-02T12:46:42;4.80;;;2.45;;
32323;SDS011;25666;44.350;9.222;2024-03-02T12:49:09;9.75;;;1.90;;
32323;SDS011;25666;44.350;9.222;2024-03-02T12:51:37;7.20;;;2.38;;
32323;SDS011;25666;44.350;9.222;2024-03-02T12:54:05;4.40;;;1.98;;
32323;SDS011;25666;44.350;9.222;2024-03-02T12:56:37;3.22;;;1.80;;
32323;SDS011;25666;44.350;9.222;2024-03-02T12:59:06;3.72;;;1.92;;
32323;SDS011;25666;44.350;9.222;2024-03-02T13:01:31;7.05;;;2.10;;
32323;SDS011;25666;44.350;9.222;2024-03-02T13:03:57;6.95;;;1.92;;
32323;SDS011;25666;44.350;9.222;2024-03-02T13:06:24;20.23;;;2.67;;
32323;SDS011;25666;44.350;9.222;2024-03-02T13:08:53;7.32;;;2.45;;
32323;SDS011;25666;44.350;9.222;2024-03-02T13:11:20;9.68;;;2.83;;
32323;SDS011;25666;44.350;9.222;2024-03-02T13:13:46;3.78;;;1.90;;
32323;SDS011;25666;44.350;9.222;2024-03-02T13:16:12;6.63;;;2.22;;
32323;SDS011;25666;44.350;9.222;2024-03-02T13:18:38;6.47;;;2.22;;
32323;SDS011;25666;44.350;9.222;2024-03-02T13:21:04;7.20;;;2.25;;
32323;SDS011;25666;44.350;9.222;2024-03-02T13:23:30;4.72;;;2.45;;
32323;SDS011;25666;44.350;9.222;2024-03-02T13:25:56;7.25;;;2.50;;
32323;SDS011;25666;44.350;9.222;2024-03-02T13:28:23;8.85;;;2.10;;
32323;SDS011;25666;44.350;9.222;2024-03-02T13:30:49;2.80;;;2.08;;
32323;SDS011;25666;44.350;9.222;2024-03-02T13:33:15;8.98;;;2.25;;
32323;SDS011;25666;44.350;9.222;2024-03-02T13:35:40;6.88;;;2.70;;
32323;SDS011;25666;44.350;9.222;2024-03-02T13:38:05;2.45;;;2.15;;
32323;SDS011;25666;44.350;9.222;2024-03-02T13:40:31;7.40;;;2.22;;
32323;SDS011;25666;44.350;9.222;2024-03-02T13:43:00;8.80;;;2.65;;
32323;SDS011;25666;44.350;9.222;2024-03-02T13:45:27;4.85;;;2.80;;
32323;SDS011;25666;44.350;9.222;2024-03-02T13:47:53;7.78;;;4.22;;
32323;SDS011;25666;44.350;9.222;2024-03-02T13:50:19;13.20;;;3.10;;
32323;SDS011;25666;44.350;9.222;2024-03-02T13:52:45;6.57;;;2.70;;
32323;SDS011;25666;44.350;9.222;2024-03-02T13:55:10;9.00;;;2.38;;
32323;SDS011;25666;44.350;9.222;2024-03-02T13:57:36;5.00;;;2.35;;
32323;SDS011;25666;44.350;9.222;2024-03-02T14:00:02;5.28;;;2.40;;
32323;SDS011;25666;44.350;9.222;2024-03-02T14:02:37;7.28;;;3.40;;
32323;SDS011;25666;44.350;9.222;2024-03-02T14:05:03;16.85;;;4.43;;
32323;SDS011;25666;44.350;9.222;2024-03-02T14:07:29;3.67;;;2.03;;
32323;SDS011;25666;44.350;9.222;2024-03-02T14:09:54;5.78;;;2.85;;
32323;SDS011;25666;44.350;9.222;2024-03-02T14:12:20;4.57;;;2.28;;
32323;SDS011;25666;44.350;9.222;2024-03-02T14:14:47;7.72;;;2.20;;
32323;SDS011;25666;44.350;9.222;2024-03-02T14:17:13;6.05;;;2.65;;
32323;SDS011;25666;44.350;9.222;2024-03-02T14:19:40;6.60;;;2.45;;
32323;SDS011;25666;44.350;9.222;2024-03-02T14:22:06;12.75;;;2.35;;
32323;SDS011;25666;44.350;9.222;2024-03-02T14:24:32;9.77;;;2.85;;
32323;SDS011;25666;44.350;9.222;2024-03-02T14:26:57;3.45;;;1.80;;
32323;SDS011;25666;44.350;9.222;2024-03-02T14:29:26;7.90;;;2.83;;
32323;SDS011;25666;44.350;9.222;2024-03-02T14:31:52;6.90;;;2.25;;
32323;SDS011;25666;44.350;9.222;2024-03-02T14:34:17;7.20;;;2.50;;
32323;SDS011;25666;44.350;9.222;2024-03-02T14:36:43;7.57;;;2.85;;
32323;SDS011;25666;44.350;9.222;2024-03-02T14:39:09;4.57;;;2.20;;
32323;SDS011;25666;44.350;9.222;2024-03-02T14:41:36;5.90;;;2.20;;
32323;SDS011;25666;44.350;9.222;2024-03-02T14:44:02;6.90;;;2.95;;
32323;SDS011;25666;44.350;9.222;2024-03-02T14:46:27;6.57;;;2.50;;
32323;SDS011;25666;44.350;9.222;2024-03-02T14:48:53;4.13;;;2.53;;
32323;SDS011;25666;44.350;9.222;2024-03-02T14:51:19;16.85;;;2.72;;
32323;SDS011;25666;44.350;9.222;2024-03-02T14:53:44;9.93;;;2.72;;
32323;SDS011;25666;44.350;9.222;2024-03-02T14:56:10;7.72;;;3.10;;